Time;durP1;ratioP1;P1;durP2;ratioP2;P2;SDS_P1;SDS_P2;PMS_P1;PMS_P2;Temp;Humidity;BMP_temperature;BMP_pressure;BME280_temperature;BME280_humidity;BME280_pressure;Samples;Min_cycle;Max_cycle;Signal;HPM_P1;HPM_P2
2023/03/17 00:01:37;;;;;;;0.50;0.50;;;15.70;93.10;;;15.33;40.70;100555.44;4921116;28;113019;-48
2023/03/17 00:04:03;;;;;;;1.50;0.90;;;15.70;93.00;;;15.29;40.94;100553.91;4930440;28;98382;-42
2023/03/17 00:06:33;;;;;;;0.70;0.50;;;15.70;93.20;;;15.33;39.44;100556.31;4913679;28;98089;-46
2023/03/17 00:09:00;;;;;;;0.70;0.50;;;15.70;92.40;;;15.35;40.52;100556.25;4910665;28;98938;-44
2023/03/17 00:11:27;;;;;;;1.27;0.40;;;15.70;92.80;;;15.32;40.83;100556.41;4911005;28;99537;-41
2023/03/17 00:13:52;;;;;;;0.30;0.30;;;15.70;93.20;;;15.33;40.58;100561.63;4913587;28;98491;-43
2023/03/17 00:16:26;;;;;;;0.50;0.50;;;15.70;93.10;;;15.35;40.54;100556.25;4915880;28;98071;-41
2023/03/17 00:18:53;;;;;;;0.80;0.60;;;15.70;93.00;;;15.32;40.76;100559.06;4911404;28;97457;-43
2023/03/17 00:21:29;;;;;;;0.60;0.60;;;15.70;93.10;;;15.35;40.77;100553.59;4915062;28;99730;-43
2023/03/17 00:23:56;;;;;;;0.70;0.53;;;15.70;93.00;;;15.38;40.30;100566.69;4913724;28;99590;-43
2023/03/17 00:26:23;;;;;;;0.77;0.50;;;15.70;92.30;;;15.34;40.61;100557.19;4912239;28;99329;-41
2023/03/17 00:28:51;;;;;;;0.83;0.67;;;15.70;93.00;;;15.36;40.52;100565.94;4909791;28;98942;-43
2023/03/17 00:31:22;;;;;;;1.30;0.50;;;15.70;92.80;;;15.37;40.41;100578.28;4913908;28;97796;-42
2023/03/17 00:33:51;;;;;;;2.10;0.57;;;15.70;92.60;;;15.39;40.35;100587.00;4908258;28;98205;-43
2023/03/17 00:36:36;;;;;;;0.93;0.57;;;15.60;92.50;;;15.36;40.63;100595.16;4912413;28;96897;-42
2023/03/17 00:39:05;;;;;;;0.83;0.50;;;15.60;92.80;;;15.38;40.08;100606.56;4909240;28;98499;-43
2023/03/17 00:41:31;;;;;;;0.90;0.70;;;15.60;92.20;;;15.34;41.04;100605.88;4926684;28;97558;-44
2023/03/17 00:43:57;;;;;;;0.87;0.70;;;15.60;93.30;;;15.35;40.41;100606.75;4909180;28;97389;-43
2023/03/17 00:46:34;;;;;;;1.47;0.57;;;15.60;92.60;;;15.34;41.05;100613.00;4914916;28;98622;-43
2023/03/17 00:49:04;;;;;;;1.53;0.60;;;15.60;93.30;;;15.39;39.63;100626.88;4915929;28;98149;-44
2023/03/17 00:51:30;;;;;;;1.23;0.53;;;15.60;91.90;;;15.31;40.81;100615.81;4930820;28;97345;-42
2023/03/17 00:53:55;;;;;;;0.53;0.40;;;15.50;92.70;;;15.32;40.80;100613.06;4932224;28;97508;-42
2023/03/17 00:56:22;;;;;;;0.77;0.30;;;15.50;93.40;;;15.34;40.83;100610.34;4929315;28;97061;-41
2023/03/17 00:58:48;;;;;;;1.20;0.57;;;15.60;93.40;;;15.38;40.72;100606.56;4927874;28;97311;-42
2023/03/17 01:01:14;;;;;;;0.40;0.40;;;15.60;93.30;;;15.35;41.05;100601.44;4932997;28;97463;-44
2023/03/17 01:03:40;;;;;;;0.57;0.47;;;15.60;93.30;;;15.36;40.87;100604.00;4928198;28;97369;-43
2023/03/17 01:06:10;;;;;;;1.50;0.50;;;15.60;93.10;;;15.38;40.83;100606.56;4931235;28;97204;-44
2023/03/17 01:08:37;;;;;;;1.03;0.47;;;15.70;93.00;;;15.37;40.93;100604.84;4932871;28;97614;-42
2023/03/17 01:11:04;;;;;;;2.30;0.70;;;15.60;93.20;;;15.33;41.00;100600.63;4932417;28;97647;-43
2023/03/17 01:13:29;;;;;;;0.73;0.40;;;15.60;93.30;;;15.39;40.96;100608.28;4933110;28;115354;-41
2023/03/17 01:15:56;;;;;;;2.90;0.70;;;15.70;93.20;;;15.37;41.03;100599.53;4929313;28;98631;-45
2023/03/17 01:18:22;;;;;;;0.40;0.27;;;15.70;93.30;;;15.34;40.81;100605.03;4930038;28;97319;-42
2023/03/17 01:20:49;;;;;;;0.50;0.30;;;15.70;93.20;;;15.35;40.78;100606.75;4929535;28;97404;-41
2023/03/17 01:23:16;;;;;;;0.80;0.60;;;15.70;93.20;;;15.31;41.08;100594.53;4931113;28;97328;-43
2023/03/17 01:25:43;;;;;;;1.70;0.60;;;15.70;93.30;;;15.34;40.89;100586.44;4927299;28;97914;-44
2023/03/17 01:28:19;;;;;;;0.50;0.30;;;15.70;93.10;;;15.33;40.96;100584.69;4935490;28;97675;-43
2023/03/17 01:30:46;;;;;;;0.40;0.40;;;15.70;93.20;;;15.27;41.09;100577.06;4925922;28;97161;-42
2023/03/17 01:33:13;;;;;;;1.23;0.60;;;15.70;93.30;;;15.33;40.51;100576.72;4929647;28;97505;-44
2023/03/17 01:35:41;;;;;;;1.87;0.77;;;15.70;92.70;;;15.25;41.16;100573.66;4929192;28;97172;-43
2023/03/17 01:38:07;;;;;;;0.63;0.33;;;15.70;93.20;;;15.29;40.88;100570.72;4931845;28;98619;-44
2023/03/17 01:40:42;;;;;;;0.53;0.50;;;15.60;92.80;;;15.36;40.94;100555.31;4929952;28;97740;-42
2023/03/17 01:43:07;;;;;;;0.90;0.70;;;15.70;93.20;;;15.33;40.74;100539.50;4928078;28;100564;-44
2023/03/17 01:46:13;;;;;;;1.00;0.60;;;15.70;93.00;;;15.30;40.74;100526.41;4927347;28;98119;-43
2023/03/17 01:48:57;;;;;;;0.73;0.33;;;15.70;93.10;;;15.31;40.92;100528.13;4924660;28;97376;-43
2023/03/17 01:51:23;;;;;;;0.70;0.60;;;15.70;93.10;;;15.24;41.12;100518.78;4926896;28;98055;-43
2023/03/17 01:53:51;;;;;;;1.33;0.60;;;15.60;93.10;;;15.26;41.02;100522.22;4928607;28;97010;-43
2023/03/17 01:56:18;;;;;;;0.63;0.30;;;15.60;93.20;;;15.23;41.02;100511.78;4930707;28;97374;-45
2023/03/17 01:58:49;;;;;;;1.70;0.70;;;15.60;93.10;;;15.25;41.11;100515.19;4926788;28;97296;-42
2023/03/17 02:01:16;;;;;;;0.77;0.50;;;15.60;93.10;;;15.26;40.88;100512.44;4936601;28;97792;-43
2023/03/17 02:03:42;;;;;;;0.77;0.47;;;15.60;93.00;;;15.25;41.11;100521.34;4931760;28;96984;-44
2023/03/17 02:06:09;;;;;;;1.30;0.47;;;15.60;93.00;;;15.25;40.98;100515.19;4933924;28;97159;-42
2023/03/17 02:08:34;;;;;;;1.50;0.67;;;15.60;93.10;;;15.31;40.60;100520.13;4934123;28;100046;-52
2023/03/17 02:11:02;;;;;;;0.57;0.40;;;15.60;92.50;;;15.31;40.72;100517.47;4934683;28;100444;-43
2023/03/17 02:13:28;;;;;;;1.27;0.80;;;15.60;92.90;;;15.30;40.76;100513.97;4933532;28;97237;-41
2023/03/17 02:15:54;;;;;;;1.03;0.47;;;15.70;93.00;;;15.35;40.84;100501.28;4931813;28;97015;-44
2023/03/17 02:18:22;;;;;;;0.63;0.63;;;15.70;93.00;;;15.36;40.41;100499.50;4934562;28;97273;-43
2023/03/17 02:20:48;;;;;;;0.87;0.40;;;15.70;92.60;;;15.30;40.74;100491.84;4937989;28;97768;-43
2023/03/17 02:23:22;;;;;;;0.50;0.50;;;15.70;93.00;;;15.32;40.67;100489.97;4936936;28;97156;-43
2023/03/17 02:25:50;;;;;;;0.50;0.40;;;15.70;93.00;;;15.37;40.35;100494.09;4933382;28;97127;-45
2023/03/17 02:28:22;;;;;;;0.93;0.30;;;15.70;92.10;;;15.36;40.53;100492.38;4948265;28;97338;-42
2023/03/17 02:30:48;;;;;;;1.07;0.47;;;15.60;92.80;;;15.35;40.80;100489.81;4933355;28;97251;-44
2023/03/17 02:33:14;;;;;;;1.07;0.33;;;15.60;92.90;;;15.32;40.25;100480.19;4936182;28;97129;-45
2023/03/17 02:35:40;;;;;;;0.50;0.30;;;15.60;92.20;;;15.31;40.82;100473.16;4936344;28;96839;-43
2023/03/17 02:38:06;;;;;;;1.73;1.00;;;15.70;93.00;;;15.29;37.63;100479.50;4937516;28;98061;-49
2023/03/17 02:40:32;;;;;;;0.90;0.50;;;15.60;90.60;;;15.32;40.60;100485.50;4933380;28;99417;-52
2023/03/17 02:42:58;;;;;;;1.67;0.60;;;15.60;93.00;;;15.31;40.68;100482.94;4935064;28;114782;-51
2023/03/17 02:45:24;;;;;;;0.80;0.67;;;15.60;92.90;;;15.34;39.79;100498.72;4938437;28;97030;-50
2023/03/17 02:47:51;;;;;;;0.70;0.43;;;15.60;91.80;;;15.38;40.42;100500.25;4941598;28;102398;-51
2023/03/17 02:50:24;;;;;;;2.30;0.90;;;15.60;92.70;;;15.30;37.66;100502.47;4936788;28;98674;-41
2023/03/17 02:52:50;;;;;;;0.63;0.43;;;15.50;91.20;;;15.27;40.64;100513.28;4935163;28;99147;-45
2023/03/17 02:55:16;;;;;;;0.30;0.30;;;15.50;93.20;;;15.25;40.92;100504.56;4944453;28;97144;-43
2023/03/17 02:57:43;;;;;;;0.43;0.43;;;15.50;93.50;;;15.29;40.43;100498.13;4937921;28;97854;-41
2023/03/17 03:00:10;;;;;;;0.60;0.40;;;15.50;92.70;;;15.27;40.91;100506.19;4946169;28;97712;-45
2023/03/17 03:02:37;;;;;;;0.70;0.50;;;15.50;93.10;;;15.28;40.86;100494.59;4937538;28;98297;-47
2023/03/17 03:05:05;;;;;;;2.10;0.40;;;15.60;93.20;;;15.26;41.02;100490.31;4946220;28;98247;-42
2023/03/17 03:07:31;;;;;;;1.23;0.80;;;15.60;93.20;;;15.28;41.01;100499.06;4934274;28;97147;-42
2023/03/17 03:09:57;;;;;;;0.80;0.70;;;15.60;93.20;;;15.26;41.02;100501.81;4929152;28;98699;-42
2023/03/17 03:12:24;;;;;;;1.30;0.40;;;15.60;92.60;;;15.27;40.84;100507.97;4936654;28;96830;-42
2023/03/17 03:14:50;;;;;;;0.60;0.33;;;15.60;93.10;;;15.35;40.72;100511.06;4926181;28;96882;-43
2023/03/17 03:17:16;;;;;;;0.90;0.60;;;15.60;92.90;;;15.37;40.54;100518.00;4936339;28;97025;-42
2023/03/17 03:19:42;;;;;;;0.83;0.50;;;15.60;92.50;;;15.39;40.54;100515.25;4932256;28;97263;-44
2023/03/17 03:22:08;;;;;;;0.77;0.37;;;15.60;92.90;;;15.38;40.70;100513.53;4936698;28;97694;-41
2023/03/17 03:24:34;;;;;;;0.43;0.30;;;15.60;92.80;;;15.33;40.94;100504.97;4928186;28;97531;-44
2023/03/17 03:27:00;;;;;;;0.67;0.50;;;15.60;93.20;;;15.31;40.63;100498.88;4929361;28;97301;-43
2023/03/17 03:29:26;;;;;;;1.13;0.57;;;15.60;92.60;;;15.27;41.09;100492.03;4929139;28;99811;-44
2023/03/17 03:31:52;;;;;;;1.50;0.57;;;15.60;93.20;;;15.28;41.00;100483.13;4927907;28;110286;-43
2023/03/17 03:34:18;;;;;;;0.63;0.50;;;15.60;93.00;;;15.26;41.05;100490.31;4931154;28;96954;-43
2023/03/17 03:36:44;;;;;;;0.50;0.50;;;15.60;93.10;;;15.30;40.92;100479.44;4925713;28;97119;-44
2023/03/17 03:39:09;;;;;;;0.80;0.60;;;15.60;92.90;;;15.25;40.77;100484.16;4934760;28;97470;-41
2023/03/17 03:41:36;;;;;;;1.07;0.50;;;15.60;92.90;;;15.28;40.94;100483.97;4932512;28;108307;-55
2023/03/17 03:44:01;;;;;;;1.30;0.70;;;15.60;93.00;;;15.29;40.93;100484.84;4933860;28;106466;-45
2023/03/17 03:46:27;;;;;;;0.83;0.50;;;15.70;93.00;;;15.32;40.65;100474.00;4931824;28;97341;-43
2023/03/17 03:48:54;;;;;;;1.13;0.50;;;15.70;92.80;;;15.32;40.66;100474.00;4933086;28;100043;-47
2023/03/17 03:51:19;;;;;;;0.40;0.37;;;15.60;92.70;;;15.32;40.93;100474.88;4932113;28;97245;-43
2023/03/17 03:53:47;;;;;;;1.03;0.40;;;15.60;92.70;;;15.36;40.50;100464.94;4929060;28;103524;-42
2023/03/17 03:56:13;;;;;;;0.70;0.50;;;15.70;92.90;;;15.32;40.59;100468.69;4934062;28;97383;-42
2023/03/17 03:58:40;;;;;;;1.00;0.70;;;15.70;92.80;;;15.34;40.54;100473.00;4924568;28;97272;-42
2023/03/17 04:01:08;;;;;;;1.80;0.40;;;15.70;92.80;;;15.41;40.64;100487.63;4935373;28;97533;-44
2023/03/17 04:03:36;;;;;;;1.00;0.80;;;15.70;92.70;;;15.42;40.24;100496.47;4935930;28;97615;-43
2023/03/17 04:06:02;;;;;;;0.73;0.63;;;15.70;92.30;;;15.34;40.55;100504.03;4930027;28;97544;-43
2023/03/17 04:08:28;;;;;;;0.40;0.40;;;15.70;92.90;;;15.35;40.76;100497.78;4934801;28;97541;-44
2023/03/17 04:10:54;;;;;;;1.00;0.50;;;15.60;92.80;;;15.35;40.71;100501.28;4939825;28;98772;-43
2023/03/17 04:13:19;;;;;;;0.80;0.40;;;15.70;92.60;;;15.31;40.99;100504.19;4935051;28;97252;-43
2023/03/17 04:15:45;;;;;;;1.87;1.00;;;15.70;93.00;;;15.38;40.68;100489.63;4929842;28;96711;-44
2023/03/17 04:18:11;;;;;;;0.73;0.43;;;15.70;92.50;;;15.39;40.40;100491.34;4933953;28;97369;-43
2023/03/17 04:20:37;;;;;;;0.83;0.50;;;15.70;92.30;;;15.36;40.70;100480.88;4930390;28;97263;-44
2023/03/17 04:23:04;;;;;;;0.43;0.43;;;15.60;92.60;;;15.33;40.57;100484.56;4926546;28;97806;-42
2023/03/17 04:28:51;;;;;;;0.80;0.50;;;15.70;93.00;;;15.35;40.64;100489.81;5682586;22;100402;-46
2023/03/17 04:31:17;;;;;;;2.37;0.50;;;15.60;92.90;;;15.34;40.85;100488.09;4929307;28;99950;-45
2023/03/17 04:33:42;;;;;;;1.03;0.43;;;15.60;92.80;;;15.35;40.75;100492.47;4954093;28;110923;-45
2023/03/17 04:36:18;;;;;;;4.23;1.00;;;15.60;92.90;;;15.34;40.25;100496.06;4979872;28;97914;-44
2023/03/17 04:38:44;;;;;;;1.43;0.60;;;15.60;91.80;;;15.35;40.64;100495.13;4974542;28;97631;-44
2023/03/17 04:41:11;;;;;;;0.47;0.47;;;15.60;92.90;;;15.34;40.75;100504.91;4983923;28;125246;-48
2023/03/17 04:43:36;;;;;;;1.30;0.60;;;15.60;92.80;;;15.41;40.12;100505.38;4979106;28;97360;-46
2023/03/17 04:46:02;;;;;;;0.97;0.57;;;15.60;92.20;;;15.33;40.59;100489.00;4979035;28;100740;-44
2023/03/17 04:48:28;;;;;;;0.30;0.30;;;15.60;92.50;;;15.34;40.92;100483.63;4983471;28;97834;-47
2023/03/17 04:50:53;;;;;;;0.57;0.43;;;15.60;93.00;;;15.35;40.62;100473.88;4972227;28;127166;-45
2023/03/17 04:53:19;;;;;;;0.90;0.67;;;15.60;92.90;;;15.35;40.77;100473.88;4981926;28;97301;-48
2023/03/17 04:55:45;;;;;;;0.30;0.30;;;15.70;92.90;;;15.41;40.71;100486.78;4980310;28;97361;-43
2023/03/17 04:58:11;;;;;;;0.30;0.30;;;15.60;92.60;;;15.34;40.93;100480.97;4977993;28;97915;-45
2023/03/17 05:00:37;;;;;;;0.40;0.37;;;15.60;93.10;;;15.37;40.65;100478.13;4980515;28;97444;-46
2023/03/17 05:03:05;;;;;;;0.70;0.40;;;15.60;92.60;;;15.31;40.86;100467.84;4980504;28;97817;-46
2023/03/17 05:05:32;;;;;;;1.40;0.60;;;15.60;92.80;;;15.31;40.72;100477.63;4982457;28;97735;-46
2023/03/17 05:07:58;;;;;;;1.13;0.37;;;15.60;93.10;;;15.32;40.80;100480.19;4976113;28;97745;-45
2023/03/17 05:10:24;;;;;;;0.40;0.40;;;15.50;93.00;;;15.37;40.61;100482.59;4981804;28;115327;-45
2023/03/17 05:12:49;;;;;;;0.93;0.50;;;15.60;92.90;;;15.31;40.85;100488.25;4971072;28;117730;-45
2023/03/17 05:15:15;;;;;;;1.07;0.50;;;15.50;93.00;;;15.31;40.62;100480.28;4966868;28;98175;-47
2023/03/17 05:17:41;;;;;;;0.50;0.50;;;15.50;93.00;;;15.29;40.77;100482.19;4974230;28;98418;-47
2023/03/17 05:20:09;;;;;;;0.53;0.47;;;15.50;92.60;;;15.32;40.80;100479.34;4972741;28;119146;-48
2023/03/17 05:22:36;;;;;;;0.50;0.50;;;15.50;92.60;;;15.25;41.00;100478.84;4977462;28;97306;-50
2023/03/17 05:25:02;;;;;;;0.80;0.50;;;15.50;93.10;;;15.25;41.19;100472.69;4972789;28;97388;-48
2023/03/17 05:27:29;;;;;;;1.23;0.40;;;15.50;93.20;;;15.22;41.21;100472.84;4977668;28;102359;-49
2023/03/17 05:29:55;;;;;;;2.40;0.40;;;15.50;93.00;;;15.24;39.55;100478.94;4974311;28;97815;-45
2023/03/17 05:32:21;;;;;;;0.50;0.30;;;15.50;91.60;;;15.28;41.03;100477.81;4981429;28;103615;-50
2023/03/17 05:34:47;;;;;;;1.07;0.50;;;15.60;93.20;;;15.32;40.96;100479.34;4978148;28;97554;-47
2023/03/17 05:37:14;;;;;;;0.70;0.47;;;15.60;92.60;;;15.33;41.05;100475.72;4982102;28;100058;-44
2023/03/17 05:39:40;;;;;;;1.23;0.40;;;15.60;93.10;;;15.30;40.91;100475.91;4978118;28;97417;-43
2023/03/17 05:42:07;;;;;;;1.77;0.60;;;15.60;93.10;;;15.31;40.81;100485.59;4987065;28;97304;-46
2023/03/17 05:44:33;;;;;;;2.73;0.40;;;15.60;93.10;;;15.35;40.71;100490.66;4979761;28;97615;-44
2023/03/17 05:46:59;;;;;;;0.47;0.47;;;15.60;92.90;;;15.36;40.49;100486.22;4978998;28;98759;-47
2023/03/17 05:49:27;;;;;;;0.67;0.43;;;15.60;92.60;;;15.37;40.81;100482.59;4983020;28;102181;-45
2023/03/17 05:51:54;;;;;;;2.37;0.43;;;15.60;93.00;;;15.34;40.86;100473.00;4980324;28;97731;-48
2023/03/17 05:54:21;;;;;;;0.77;0.40;;;15.60;92.50;;;15.37;41.01;100466.66;4986450;28;98290;-47
2023/03/17 05:56:47;;;;;;;0.97;0.40;;;15.60;92.90;;;15.39;40.94;100472.72;4955395;28;98111;-44
2023/03/17 05:59:15;;;;;;;0.57;0.47;;;15.70;93.00;;;15.39;40.92;100464.75;4974547;28;97451;-46
2023/03/17 06:01:41;;;;;;;0.47;0.30;;;15.70;92.90;;;15.39;41.05;100476.25;4982757;28;97628;-45
2023/03/17 06:04:07;;;;;;;0.67;0.40;;;15.70;93.00;;;15.39;40.71;100486.03;4980947;28;97299;-43
2023/03/17 06:06:33;;;;;;;0.60;0.30;;;15.70;93.00;;;15.38;40.92;100479.00;4981275;28;117973;-43
2023/03/17 06:09:00;;;;;;;1.00;0.57;;;15.60;92.90;;;15.37;40.92;100479.94;4978141;28;97363;-43
2023/03/17 06:11:26;;;;;;;0.77;0.63;;;15.70;93.00;;;15.34;38.57;100477.47;4982968;28;104528;-45
2023/03/17 06:13:52;;;;;;;0.40;0.40;;;15.60;91.50;;;15.38;40.79;100469.22;4981557;28;97902;-45
2023/03/17 06:16:18;;;;;;;1.00;0.70;;;15.60;93.00;;;15.41;40.82;100478.81;4986181;28;97323;-46
2023/03/17 06:18:44;;;;;;;0.50;0.37;;;15.70;92.80;;;15.43;40.60;100479.56;4977237;28;98261;-46
2023/03/17 06:21:12;;;;;;;0.73;0.60;;;15.70;92.60;;;15.39;41.08;100475.38;4988909;28;96794;-49
2023/03/17 06:23:37;;;;;;;0.50;0.30;;;15.70;93.00;;;15.40;40.87;100474.44;4981350;28;96936;-45
2023/03/17 06:26:04;;;;;;;0.97;0.53;;;15.70;92.90;;;15.43;40.59;100466.28;4961571;28;97997;-43
2023/03/17 06:28:30;;;;;;;0.90;0.63;;;15.80;92.50;;;15.44;40.70;100478.63;4982960;28;98312;-45
2023/03/17 06:30:56;;;;;;;0.67;0.50;;;15.80;92.90;;;15.50;40.36;100477.44;4980315;28;97731;-44
2023/03/17 06:33:23;;;;;;;0.50;0.30;;;15.80;92.10;;;15.44;40.84;100475.97;4982083;28;97682;-45
2023/03/17 06:35:50;;;;;;;1.33;0.37;;;15.80;93.00;;;15.48;40.77;100480.19;4977440;28;97582;-45
2023/03/17 06:38:16;;;;;;;1.00;0.50;;;15.70;92.70;;;15.48;40.56;100485.50;4980940;28;99071;-45
2023/03/17 06:40:42;;;;;;;0.83;0.53;;;15.70;92.40;;;15.44;40.77;100473.31;4979829;28;97325;-46
2023/03/17 06:43:08;;;;;;;0.63;0.47;;;15.60;92.60;;;15.37;40.96;100471.97;4978278;28;97998;-45
2023/03/17 06:45:34;;;;;;;1.37;0.67;;;15.60;93.10;;;15.38;40.69;100463.06;4989152;28;103416;-50
2023/03/17 06:48:01;;;;;;;0.83;0.40;;;15.60;92.90;;;15.32;41.10;100463.38;4978063;28;97358;-47
2023/03/17 06:50:27;;;;;;;3.03;1.30;;;15.60;93.10;;;15.34;40.24;100472.16;4982585;28;97551;-45
2023/03/17 06:52:52;;;;;;;0.43;0.43;;;15.60;91.60;;;15.29;41.33;100461.78;4980885;28;96981;-46
2023/03/17 06:55:20;;;;;;;0.53;0.53;;;15.60;93.10;;;15.26;41.34;100467.28;4989477;28;119337;-50
2023/03/17 06:57:45;;;;;;;0.50;0.40;;;15.60;92.90;;;15.27;41.03;100471.63;4975153;28;96854;-46
2023/03/17 07:00:14;;;;;;;0.33;0.23;;;15.60;93.00;;;15.31;41.12;100472.31;4986489;28;96819;-46
2023/03/17 07:02:41;;;;;;;0.50;0.47;;;15.70;92.90;;;15.36;40.78;100462.28;4977868;28;97867;-43
2023/03/17 07:05:07;;;;;;;1.37;0.70;;;15.60;92.50;;;15.37;40.88;100461.34;4984378;28;97993;-46
2023/03/17 07:07:34;;;;;;;1.87;0.60;;;15.60;92.50;;;15.36;40.98;100470.25;4982184;28;97441;-49
2023/03/17 07:10:00;;;;;;;0.80;0.37;;;15.60;92.80;;;15.36;40.92;100475.56;4973167;28;97271;-47
2023/03/17 07:12:26;;;;;;;0.37;0.30;;;15.60;92.60;;;15.27;41.42;100470.78;4979803;28;97482;-48
2023/03/17 07:14:53;;;;;;;2.13;0.80;;;15.60;93.20;;;15.29;40.89;100468.88;4982464;28;97951;-46
2023/03/17 07:17:19;;;;;;;1.83;0.50;;;15.60;92.60;;;15.40;40.84;100482.41;4969064;28;98224;-46
2023/03/17 07:19:45;;;;;;;0.90;0.40;;;15.60;92.70;;;15.35;39.67;100481.84;4957088;28;97257;-49
2023/03/17 07:22:11;;;;;;;0.93;0.50;;;15.60;92.10;;;15.36;40.98;100486.22;4964963;28;97525;-50
2023/03/17 07:24:38;;;;;;;0.37;0.37;;;15.70;92.90;;;15.36;41.04;100479.09;4977855;28;97834;-45
2023/03/17 07:27:04;;;;;;;1.30;0.90;;;15.60;93.00;;;15.39;40.78;100475.38;4984331;28;97307;-48
2023/03/17 07:29:31;;;;;;;0.40;0.30;;;15.70;93.00;;;15.39;41.06;100464.75;4983069;28;113292;-47
2023/03/17 07:31:57;;;;;;;0.40;0.40;;;15.70;92.90;;;15.41;40.86;100471.69;4974187;28;97748;-45
2023/03/17 07:34:23;;;;;;;0.47;0.40;;;15.70;92.90;;;15.44;40.63;100465.34;4980145;28;97053;-45
2023/03/17 07:36:48;;;;;;;0.40;0.30;;;15.70;92.60;;;15.36;40.84;100459.63;4972054;28;97868;-52
2023/03/17 07:39:14;;;;;;;0.53;0.47;;;15.70;92.80;;;15.41;40.81;100457.53;4953050;28;97311;-45
2023/03/17 07:41:41;;;;;;;1.23;0.70;;;15.70;92.50;;;15.38;38.08;100460.38;4982296;28;115603;-46
2023/03/17 07:44:08;;;;;;;0.67;0.43;;;15.70;90.80;;;15.37;40.98;100469.31;4980439;28;97490;-45
2023/03/17 07:46:34;;;;;;;2.20;0.37;;;15.70;93.00;;;15.35;40.97;100455.25;4981795;28;99040;-49
2023/03/17 07:49:00;;;;;;;0.40;0.40;;;15.70;93.00;;;15.31;41.10;100457.22;4978442;28;97630;-43
2023/03/17 07:51:26;;;;;;;0.60;0.60;;;15.70;93.10;;;15.35;41.03;100458.78;4976515;28;98065;-45
2023/03/17 07:53:54;;;;;;;0.70;0.60;;;15.70;92.90;;;15.38;39.30;100463.06;4981534;28;98979;-48
2023/03/17 07:56:20;;;;;;;0.60;0.53;;;15.70;91.40;;;15.43;40.25;100466.28;4980525;28;98415;-46
2023/03/17 07:58:46;;;;;;;1.37;0.37;;;15.70;92.00;;;15.36;40.95;100468.47;4979334;28;97217;-48
2023/03/17 08:01:12;;;;;;;1.90;0.90;;;15.60;92.90;;;15.37;39.34;100462.19;4989180;28;97394;-43
2023/03/17 08:03:38;;;;;;;1.57;0.60;;;15.60;91.70;;;15.34;41.35;100461.53;4974263;28;108892;-44
2023/03/17 08:06:05;;;;;;;0.70;0.60;;;15.70;93.30;;;15.34;40.50;100462.38;4980449;28;122183;-48
2023/03/17 08:08:31;;;;;;;0.67;0.40;;;15.60;92.00;;;15.34;41.08;100467.69;4987041;28;100233;-43
2023/03/17 08:11:02;;;;;;;0.50;0.40;;;15.60;92.90;;;15.35;41.22;100460.56;4976860;28;97240;-45
2023/03/17 08:13:30;;;;;;;1.00;0.53;;;15.60;93.10;;;15.43;40.97;100463.63;4962576;28;97320;-48
2023/03/17 08:15:56;;;;;;;0.33;0.30;;;15.70;93.00;;;15.46;40.60;100468.75;4980951;28;97000;-44
2023/03/17 08:18:22;;;;;;;0.43;0.30;;;15.70;92.80;;;15.42;39.33;100467.22;4979749;28;100000;-45
2023/03/17 08:20:50;;;;;;;1.17;0.53;;;15.80;91.90;;;15.44;40.88;100462.69;4978838;28;97002;-49
2023/03/17 08:23:17;;;;;;;0.70;0.70;;;15.80;92.90;;;15.53;39.66;100467.47;4973434;28;103426;-44
2023/03/17 08:25:43;;;;;;;0.83;0.73;;;15.80;91.80;;;15.50;40.61;100465.00;4976302;28;97650;-45
2023/03/17 08:28:09;;;;;;;0.63;0.40;;;15.80;92.50;;;15.51;39.63;100466.69;4985245;28;97691;-43
2023/03/17 08:30:36;;;;;;;0.87;0.70;;;15.70;91.70;;;15.51;40.43;100469.34;4983294;28;97510;-44
2023/03/17 08:33:02;;;;;;;0.40;0.40;;;15.70;92.10;;;15.53;41.00;100483.41;4977504;28;102920;-48
2023/03/17 08:35:29;;;;;;;0.53;0.50;;;15.70;92.90;;;15.47;41.25;100478.44;4966073;28;98717;-46
2023/03/17 08:37:55;;;;;;;1.37;0.57;;;15.80;93.00;;;15.41;39.64;100484.97;4979434;28;97622;-45
2023/03/17 08:40:21;;;;;;;0.57;0.40;;;15.60;92.20;;;15.37;41.43;100477.28;4959091;28;115314;-46
2023/03/17 08:42:48;;;;;;;2.80;0.77;;;15.60;93.30;;;15.38;41.28;100463.91;4958800;28;99677;-48
2023/03/17 08:45:17;;;;;;;0.50;0.40;;;15.60;93.10;;;15.34;41.96;100469.50;4983655;28;97588;-50
2023/03/17 08:47:44;;;;;;;1.90;0.53;;;15.70;93.60;;;15.45;41.09;100469.69;4982805;28;97362;-46
2023/03/17 08:50:17;;;;;;;1.00;0.70;;;15.70;93.10;;;15.46;38.10;100471.41;4982725;28;98206;-49
2023/03/17 08:52:44;;;;;;;1.63;0.50;;;15.80;91.00;;;15.41;41.46;100461.06;4983441;28;97536;-45
2023/03/17 08:55:12;;;;;;;2.10;0.50;;;15.70;93.20;;;15.41;41.83;100462.84;4985883;28;97709;-48
2023/03/17 08:57:38;;;;;;;0.47;0.40;;;15.80;93.50;;;15.44;41.18;100452.03;4979277;28;98081;-45
2023/03/17 09:00:09;;;;;;;0.63;0.43;;;15.80;93.20;;;15.46;41.10;100450.16;4981798;28;97184;-45
2023/03/17 09:02:37;;;;;;;0.50;0.50;;;15.70;93.00;;;15.52;40.62;100439.16;4981039;28;97461;-47
2023/03/17 09:05:06;;;;;;;0.83;0.57;;;15.80;92.80;;;15.51;40.04;100434.81;4977792;28;102803;-47
2023/03/17 09:07:32;;;;;;;0.50;0.40;;;15.80;91.80;;;15.44;41.06;100441.41;4983992;28;97485;-48
2023/03/17 09:09:59;;;;;;;0.17;0.17;;;15.70;93.20;;;15.39;41.68;100439.03;4977402;28;97282;-46
2023/03/17 09:12:25;;;;;;;0.80;0.70;;;15.80;93.50;;;15.39;41.20;100448.81;4981812;28;97522;-45
2023/03/17 09:14:52;;;;;;;1.03;0.73;;;15.70;93.00;;;15.48;38.99;100453.59;4975495;28;97801;-45
2023/03/17 09:17:17;;;;;;;1.70;0.67;;;15.70;91.50;;;15.45;41.20;100451.94;4981541;28;97046;-45
2023/03/17 09:19:43;;;;;;;1.10;0.60;;;15.70;93.20;;;15.48;41.00;100464.22;4982387;28;97332;-44
2023/03/17 09:22:14;;;;;;;1.20;0.63;;;15.70;93.00;;;15.46;41.14;100466.09;4980766;28;98183;-48
2023/03/17 09:24:41;;;;;;;0.70;0.60;;;15.70;93.00;;;15.52;40.76;100470.22;4980295;28;103919;-44
2023/03/17 09:27:07;;;;;;;2.03;0.63;;;15.70;92.90;;;15.51;40.56;100474.69;4981665;28;98207;-47
2023/03/17 09:29:33;;;;;;;0.77;0.50;;;15.70;92.70;;;15.48;41.41;100480.19;4979608;28;103229;-48
2023/03/17 09:31:59;;;;;;;0.60;0.60;;;15.70;93.40;;;15.53;39.61;100467.47;4960058;28;97157;-48
2023/03/17 09:34:25;;;;;;;0.80;0.60;;;15.80;91.90;;;15.56;40.87;100467.28;4980965;28;97401;-46
2023/03/17 09:36:53;;;;;;;1.23;0.70;;;15.70;92.70;;;15.59;39.70;100456.47;4980091;28;108605;-44
2023/03/17 09:39:21;;;;;;;0.97;0.60;;;15.80;92.50;;;15.57;40.96;100455.69;4972276;28;98050;-48
2023/03/17 09:42:25;;;;;;;0.90;0.57;;;15.80;92.80;;;15.59;39.75;100452.94;4967785;28;97581;-45
2023/03/17 09:45:22;;;;;;;1.63;0.80;;;15.80;92.40;;;15.60;40.08;100446.69;4972383;28;97354;-47
2023/03/17 09:47:57;;;;;;;1.03;0.40;;;15.70;92.50;;;15.57;41.03;100442.41;4976613;28;98076;-47
2023/03/17 09:50:50;;;;;;;0.60;0.50;;;15.70;93.30;;;15.56;41.09;100440.69;4963755;28;97348;-49
2023/03/17 09:53:32;;;;;;;1.90;0.30;;;15.80;93.20;;;15.55;40.62;100443.44;4957950;28;100377;-48
2023/03/17 09:56:07;;;;;;;0.90;0.50;;;15.80;92.90;;;15.46;41.29;100442.16;4980341;28;96961;-44
2023/03/17 09:58:35;;;;;;;1.30;0.63;;;15.80;93.30;;;15.55;40.99;100444.28;4979487;28;97751;-49
2023/03/17 10:01:04;;;;;;;1.37;0.60;;;15.90;93.00;;;15.52;41.35;100449.81;4947203;28;97661;-47
2023/03/17 10:03:31;;;;;;;0.97;0.73;;;15.80;93.20;;;15.60;40.96;100454.69;4960210;28;99037;-52
2023/03/17 10:06:18;;;;;;;0.50;0.50;;;15.90;93.10;;;15.57;41.28;100445.06;4961709;28;97357;-43
2023/03/17 10:08:55;;;;;;;0.77;0.33;;;15.90;93.00;;;15.59;41.37;100447.63;4976285;28;97970;-47
2023/03/17 10:11:42;;;;;;;0.70;0.33;;;15.90;93.10;;;15.52;41.24;100438.31;4984006;28;97451;-44
2023/03/17 10:14:32;;;;;;;0.67;0.43;;;15.90;93.20;;;15.45;41.76;100437.81;4982544;28;100676;-49
2023/03/17 10:17:20;;;;;;;1.03;0.40;;;15.90;93.40;;;15.44;41.58;100434.28;4983791;28;97744;-44